Terminal Aerodrome Forecast
Issued by NWS Denver/Boulder, CO

Home | Current Version | Previous Version | Text Only | Print | Product List | Glossary On
Versions: 1 2 3 4 5 6 7 8 9 10 11 12 13 14 15 16 17 18 19 20 21 22 23 24 25 26 27 28 29 30 31 32 33 34 35 36 37 38 39 40 41 42 43 44 45 46 47 48
000
FTUS45 KBOU 272010 AAE
TAFDEN
TAF AMD
KDEN 272010Z 2720/2824 30010KT 6SM -RA SCT025 BKN035 OVC050
      TEMPO 2720/2721 4SM -RA SCT020 OVC035
     FM272100 33012G18KT P6SM VCSH SCT045 BKN060
     FM280100 32007KT P6SM SCT060 BKN120
     FM280500 24006KT P6SM FEW060 SCT120
     FM281500 32007KT P6SM FEW140
     FM282000 33010KT P6SM FEW080 SCT120=

USA.gov is the U.S. government's official web portal to all federal, state and local government web resources and services.